sensor_id;sensor_type;location;lat;lon;timestamp;pressure;altitude;pressure_sealevel;temperature;humidity
22775;BME280;11554;51.106;3.684;2023-03-01T00:00:00;103107.40000000001;;;-2.80;90.68
22775;BME280;11554;51.106;3.684;2023-03-01T00:05:00;103108.22;;;-2.94;90.55
22775;BME280;11554;51.106;3.684;2023-03-01T00:10:00;103098.65;;;-3.00;90.69
22775;BME280;11554;51.106;3.684;2023-03-01T00:15:00;103100.88;;;-3.08;91.45
22775;BME280;11554;51.106;3.684;2023-03-01T00:20:00;103093.68;;;-3.13;92.1
22775;BME280;11554;51.106;3.684;2023-03-01T00:25:00;103097.34000000001;;;-3.06;93.31
22775;BME280;11554;51.106;3.684;2023-03-01T00:30:00;103103.89;;;-3.25;92.47
22775;BME280;11554;51.106;3.684;2023-03-01T00:35:00;103098.34000000001;;;-3.36;92.52
22775;BME280;11554;51.106;3.684;2023-03-01T00:40:00;103096.12999999999;;;-3.63;90.8
22775;BME280;11554;51.106;3.684;2023-03-01T00:45:00;103091.38;;;-3.60;93.17
22775;BME280;11554;51.106;3.684;2023-03-01T00:50:00;103084.92000000001;;;-3.50;95.05
22775;BME280;11554;51.106;3.684;2023-03-01T00:55:00;103076.17;;;-3.19;98.88
22775;BME280;11554;51.106;3.684;2023-03-01T01:00:00;103077.23000000001;;;-3.04;100.0
22775;BME280;11554;51.106;3.684;2023-03-01T01:05:00;103081.62999999999;;;-2.93;100.0
22775;BME280;11554;51.106;3.684;2023-03-01T01:10:00;103073.20999999999;;;-2.82;100.0
22775;BME280;11554;51.106;3.684;2023-03-01T01:15:00;103071.61000000002;;;-2.76;100.0
22775;BME280;11554;51.106;3.684;2023-03-01T01:20:00;103072.68;;;-2.54;100.0
22775;BME280;11554;51.106;3.684;2023-03-01T01:25:00;103065.12;;;-2.48;100.0
22775;BME280;11554;51.106;3.684;2023-03-01T01:30:00;103060.31;;;-2.52;100.0
22775;BME280;11554;51.106;3.684;2023-03-01T01:35:00;103050.2;;;-2.67;100.0
22775;BME280;11554;51.106;3.684;2023-03-01T01:40:00;103052.33;;;-2.79;100.0
22775;BME280;11554;51.106;3.684;2023-03-01T01:50:00;103035.18999999999;;;-2.73;100.0
22775;BME280;11554;51.106;3.684;2023-03-01T01:55:01;103037.06999999999;;;-2.81;100.0
22775;BME280;11554;51.106;3.684;2023-03-01T02:00:00;103035.62;;;-2.86;100.0
22775;BME280;11554;51.106;3.684;2023-03-01T02:05:01;103024.31999999999;;;-2.73;100.0
22775;BME280;11554;51.106;3.684;2023-03-01T02:10:00;103020.83;;;-2.61;100.0
22775;BME280;11554;51.106;3.684;2023-03-01T02:15:00;103020.46;;;-2.89;100.0
22775;BME280;11554;51.106;3.684;2023-03-01T02:20:04;103015.69;;;-3.00;100.0
22775;BME280;11554;51.106;3.684;2023-03-01T02:25:03;103009.62;;;-3.28;100.0
22775;BME280;11554;51.106;3.684;2023-03-01T02:30:00;103003.05;;;-3.22;100.0
22775;BME280;11554;51.106;3.684;2023-03-01T02:35:00;102992.90000000001;;;-3.21;100.0
22775;BME280;11554;51.106;3.684;2023-03-01T02:40:02;102985.54999999999;;;-3.17;100.0
22775;BME280;11554;51.106;3.684;2023-03-01T02:45:00;102974.15000000001;;;-3.16;100.0
22775;BME280;11554;51.106;3.684;2023-03-01T02:50:00;102975.11;;;-3.07;100.0
22775;BME280;11554;51.106;3.684;2023-03-01T02:55:01;102962.51999999999;;;-3.13;100.0
22775;BME280;11554;51.106;3.684;2023-03-01T03:00:01;102960.77;;;-3.21;100.0
22775;BME280;11554;51.106;3.684;2023-03-01T03:05:00;102958.37;;;-3.37;100.0
22775;BME280;11554;51.106;3.684;2023-03-01T03:10:01;102962.51;;;-3.44;100.0
22775;BME280;11554;51.106;3.684;2023-03-01T03:15:00;102959.83000000002;;;-3.41;100.0
22775;BME280;11554;51.106;3.684;2023-03-01T03:20:00;102960.26999999999;;;-3.45;100.0
22775;BME280;11554;51.106;3.684;2023-03-01T03:25:00;102960.25;;;-3.57;100.0
22775;BME280;11554;51.106;3.684;2023-03-01T03:30:00;102949.78000000001;;;-3.56;100.0
22775;BME280;11554;51.106;3.684;2023-03-01T03:35:00;102950.62000000001;;;-3.71;100.0
22775;BME280;11554;51.106;3.684;2023-03-01T03:40:00;102947.42000000001;;;-3.76;100.0
22775;BME280;11554;51.106;3.684;2023-03-01T03:45:00;102948.12;;;-3.68;100.0
22775;BME280;11554;51.106;3.684;2023-03-01T03:50:00;102953.93999999999;;;-3.59;100.0
22775;BME280;11554;51.106;3.684;2023-03-01T03:55:00;102954.05;;;-3.52;100.0
22775;BME280;11554;51.106;3.684;2023-03-01T04:00:00;102955.52;;;-3.38;100.0
22775;BME280;11554;51.106;3.684;2023-03-01T04:05:00;102953.08;;;-3.15;100.0
22775;BME280;11554;51.106;3.684;2023-03-01T04:10:00;102950.39;;;-3.08;100.0
22775;BME280;11554;51.106;3.684;2023-03-01T04:15:00;102947.57999999999;;;-3.19;100.0
22775;BME280;11554;51.106;3.684;2023-03-01T04:20:00;102937.95999999999;;;-3.12;100.0
22775;BME280;11554;51.106;3.684;2023-03-01T04:25:00;102934.52;;;-3.12;100.0
22775;BME280;11554;51.106;3.684;2023-03-01T04:30:00;102930.40000000001;;;-3.19;100.0
22775;BME280;11554;51.106;3.684;2023-03-01T04:35:00;102942.5;;;-3.11;100.0
22775;BME280;11554;51.106;3.684;2023-03-01T04:40:00;102934.67000000001;;;-3.07;100.0
22775;BME280;11554;51.106;3.684;2023-03-01T04:45:00;102936.78;;;-3.00;100.0
22775;BME280;11554;51.106;3.684;2023-03-01T04:50:00;102932.96;;;-3.13;100.0
22775;BME280;11554;51.106;3.684;2023-03-01T04:55:00;102933.26;;;-3.05;100.0
22775;BME280;11554;51.106;3.684;2023-03-01T05:00:00;102934.27999999998;;;-2.95;100.0
22775;BME280;11554;51.106;3.684;2023-03-01T05:05:00;102934.17;;;-2.74;100.0
22775;BME280;11554;51.106;3.684;2023-03-01T05:10:00;102928.02999999998;;;-2.64;100.0
22775;BME280;11554;51.106;3.684;2023-03-01T05:15:00;102930.24;;;-2.63;100.0
22775;BME280;11554;51.106;3.684;2023-03-01T05:20:00;102922.81;;;-2.52;100.0
22775;BME280;11554;51.106;3.684;2023-03-01T05:25:00;102915.05;;;-2.55;100.0
22775;BME280;11554;51.106;3.684;2023-03-01T05:30:00;102907.21;;;-2.55;100.0
22775;BME280;11554;51.106;3.684;2023-03-01T05:35:00;102888.87999999999;;;-2.49;100.0
22775;BME280;11554;51.106;3.684;2023-03-01T05:40:00;102873.47;;;-2.55;100.0
22775;BME280;11554;51.106;3.684;2023-03-01T05:45:00;102867.04;;;-2.59;100.0
22775;BME280;11554;51.106;3.684;2023-03-01T05:50:00;102867.43;;;-2.55;100.0
22775;BME280;11554;51.106;3.684;2023-03-01T05:55:00;102860.45;;;-2.55;100.0
22775;BME280;11554;51.106;3.684;2023-03-01T06:00:00;102858.0;;;-2.61;100.0
22775;BME280;11554;51.106;3.684;2023-03-01T06:05:00;102861.12000000001;;;-2.64;100.0
22775;BME280;11554;51.106;3.684;2023-03-01T06:10:00;102866.22;;;-2.67;100.0
22775;BME280;11554;51.106;3.684;2023-03-01T06:15:00;102864.22;;;-2.59;100.0
22775;BME280;11554;51.106;3.684;2023-03-01T06:20:00;102871.57999999999;;;-2.59;100.0
22775;BME280;11554;51.106;3.684;2023-03-01T06:25:00;102880.35;;;-2.61;100.0
22775;BME280;11554;51.106;3.684;2023-03-01T06:30:00;102877.25;;;-2.67;100.0
22775;BME280;11554;51.106;3.684;2023-03-01T06:35:00;102875.28;;;-2.85;100.0
22775;BME280;11554;51.106;3.684;2023-03-01T06:40:00;102882.45;;;-2.99;100.0
22775;BME280;11554;51.106;3.684;2023-03-01T06:45:00;102880.93;;;-3.32;100.0
22775;BME280;11554;51.106;3.684;2023-03-01T06:50:00;102884.7;;;-3.41;100.0
22775;BME280;11554;51.106;3.684;2023-03-01T06:55:00;102879.02999999998;;;-3.44;100.0
22775;BME280;11554;51.106;3.684;2023-03-01T07:00:00;102891.02;;;-3.29;100.0
22775;BME280;11554;51.106;3.684;2023-03-01T07:05:00;102887.65000000001;;;-3.12;100.0
22775;BME280;11554;51.106;3.684;2023-03-01T07:10:00;102892.51999999999;;;-2.41;100.0
22775;BME280;11554;51.106;3.684;2023-03-01T07:15:00;102888.92000000001;;;-1.91;100.0
22775;BME280;11554;51.106;3.684;2023-03-01T07:20:00;102889.04;;;-1.54;100.0
22775;BME280;11554;51.106;3.684;2023-03-01T07:25:00;102893.48;;;-1.18;100.0
22775;BME280;11554;51.106;3.684;2023-03-01T07:30:00;102887.57;;;-0.88;100.0
22775;BME280;11554;51.106;3.684;2023-03-01T07:35:00;102884.67000000001;;;-0.44;100.0
22775;BME280;11554;51.106;3.684;2023-03-01T07:40:00;102881.26;;;0.09;100.0
22775;BME280;11554;51.106;3.684;2023-03-01T07:45:00;102875.71;;;0.25;100.0
22775;BME280;11554;51.106;3.684;2023-03-01T07:50:00;102871.32999999999;;;0.52;100.0
22775;BME280;11554;51.106;3.684;2023-03-01T07:55:00;102865.98;;;0.79;100.0
22775;BME280;11554;51.106;3.684;2023-03-01T08:00:00;102866.52999999998;;;1.02;100.0
22775;BME280;11554;51.106;3.684;2023-03-01T08:05:00;102868.48;;;1.09;100.0
22775;BME280;11554;51.106;3.684;2023-03-01T08:10:00;102876.56;;;1.24;100.0
22775;BME280;11554;51.106;3.684;2023-03-01T08:15:00;102874.49999999999;;;1.43;99.14
22775;BME280;11554;51.106;3.684;2023-03-01T08:20:00;102877.61;;;1.55;97.68
22775;BME280;11554;51.106;3.684;2023-03-01T08:25:00;102879.37;;;1.74;96.7
22775;BME280;11554;51.106;3.684;2023-03-01T08:30:00;102869.48999999999;;;1.97;95.85
22775;BME280;11554;51.106;3.684;2023-03-01T08:35:00;102861.18;;;2.08;94.02
22775;BME280;11554;51.106;3.684;2023-03-01T08:40:00;102860.29000000001;;;2.22;92.73
22775;BME280;11554;51.106;3.684;2023-03-01T08:45:00;102855.51000000001;;;2.44;91.98
22775;BME280;11554;51.106;3.684;2023-03-01T08:50:00;102860.05;;;2.59;90.83
22775;BME280;11554;51.106;3.684;2023-03-01T08:55:00;102856.09999999999;;;2.72;89.02
22775;BME280;11554;51.106;3.684;2023-03-01T09:00:00;102846.46;;;2.81;86.11
22775;BME280;11554;51.106;3.684;2023-03-01T09:05:00;102837.44999999998;;;3.08;83.82
22775;BME280;11554;51.106;3.684;2023-03-01T09:10:00;102835.63999999998;;;3.10;80.51
22775;BME280;11554;51.106;3.684;2023-03-01T09:15:00;102836.01000000001;;;3.23;79.18
22775;BME280;11554;51.106;3.684;2023-03-01T09:20:00;102826.61;;;3.33;76.79
22775;BME280;11554;51.106;3.684;2023-03-01T09:25:00;102824.37999999999;;;3.38;75.96
22775;BME280;11554;51.106;3.684;2023-03-01T09:30:00;102826.93999999999;;;3.39;75.48
22775;BME280;11554;51.106;3.684;2023-03-01T09:35:00;102812.57;;;3.54;75.64
22775;BME280;11554;51.106;3.684;2023-03-01T09:40:00;102816.04;;;3.76;74.3
22775;BME280;11554;51.106;3.684;2023-03-01T09:45:01;102807.76000000001;;;3.67;72.95
22775;BME280;11554;51.106;3.684;2023-03-01T09:50:02;102814.95;;;3.91;73.54
22775;BME280;11554;51.106;3.684;2023-03-01T09:55:00;102803.08;;;4.00;72.27
22775;BME280;11554;51.106;3.684;2023-03-01T10:00:03;102792.95999999999;;;4.28;71.59
22775;BME280;11554;51.106;3.684;2023-03-01T10:05:03;102790.28000000001;;;4.55;71.37
22775;BME280;11554;51.106;3.684;2023-03-01T10:10:00;102786.77;;;4.43;70.3
22775;BME280;11554;51.106;3.684;2023-03-01T10:15:02;102785.39000000001;;;4.68;69.33
22775;BME280;11554;51.106;3.684;2023-03-01T10:20:10;102789.33;;;4.68;67.88
22775;BME280;11554;51.106;3.684;2023-03-01T10:25:02;102774.18000000001;;;4.77;68.49
22775;BME280;11554;51.106;3.684;2023-03-01T10:30:02;102765.43999999999;;;5.16;67.48
22775;BME280;11554;51.106;3.684;2023-03-01T10:35:00;102762.49;;;5.26;67.45
22775;BME280;11554;51.106;3.684;2023-03-01T10:40:01;102755.47999999998;;;5.37;66.12
22775;BME280;11554;51.106;3.684;2023-03-01T10:50:00;102741.58;;;5.55;66.2
22775;BME280;11554;51.106;3.684;2023-03-01T10:55:01;102751.62;;;5.82;65.66
22775;BME280;11554;51.106;3.684;2023-03-01T11:00:01;102739.05;;;5.76;64.43
22775;BME280;11554;51.106;3.684;2023-03-01T11:05:00;102725.06000000001;;;6.00;63.94
22775;BME280;11554;51.106;3.684;2023-03-01T11:10:01;102717.85;;;6.15;64.82
22775;BME280;11554;51.106;3.684;2023-03-01T11:15:00;102714.97;;;6.27;63.54
22775;BME280;11554;51.106;3.684;2023-03-01T11:20:00;102712.40000000001;;;6.30;63.37
22775;BME280;11554;51.106;3.684;2023-03-01T11:25:00;102701.89;;;6.61;63.54
22775;BME280;11554;51.106;3.684;2023-03-01T11:30:02;102702.31000000001;;;6.73;65.2
22775;BME280;11554;51.106;3.684;2023-03-01T11:35:01;102694.26000000001;;;6.74;62.95
22775;BME280;11554;51.106;3.684;2023-03-01T11:40:03;102690.3;;;6.89;64.97
22775;BME280;11554;51.106;3.684;2023-03-01T11:45:01;102682.36;;;7.20;63.27
22775;BME280;11554;51.106;3.684;2023-03-01T11:50:04;102686.95;;;7.32;62.86
22775;BME280;11554;51.106;3.684;2023-03-01T11:55:12;102676.61;;;7.79;62.63
22775;BME280;11554;51.106;3.684;2023-03-01T12:15:05;102659.20000000001;;;7.19;61.24
22775;BME280;11554;51.106;3.684;2023-03-01T12:20:02;102653.78;;;7.20;61.6
22775;BME280;11554;51.106;3.684;2023-03-01T12:30:02;102626.48999999999;;;7.78;61.44
22775;BME280;11554;51.106;3.684;2023-03-01T12:40:03;102619.08;;;7.85;61.3
22775;BME280;11554;51.106;3.684;2023-03-01T12:45:04;102609.9;;;7.71;
22775;BME280;11554;51.106;3.684;2023-03-01T12:50:01;102603.05;;;7.82;60.9
22775;BME280;11554;51.106;3.684;2023-03-01T12:55:00;102599.1;;;7.86;60.95
22775;BME280;11554;51.106;3.684;2023-03-01T13:00:02;102583.25;;;8.16;60.13
22775;BME280;11554;51.106;3.684;2023-03-01T13:05:02;102576.12;;;8.00;60.69
22775;BME280;11554;51.106;3.684;2023-03-01T13:10:05;102577.33;;;8.25;59.27
22775;BME280;11554;51.106;3.684;2023-03-01T13:15:00;102577.08;;;8.21;60.01
22775;BME280;11554;51.106;3.684;2023-03-01T13:20:00;102560.12000000001;;;8.61;61.66
22775;BME280;11554;51.106;3.684;2023-03-01T13:25:02;102559.16;;;8.17;58.68
22775;BME280;11554;51.106;3.684;2023-03-01T13:30:00;102542.68999999999;;;8.12;59.68
22775;BME280;11554;51.106;3.684;2023-03-01T13:35:00;102534.89;;;8.02;60.13
22775;BME280;11554;51.106;3.684;2023-03-01T13:40:05;102534.88;;;8.41;59.75
22775;BME280;11554;51.106;3.684;2023-03-01T13:45:00;102540.87999999999;;;8.08;59.4
22775;BME280;11554;51.106;3.684;2023-03-01T13:50:00;102533.22;;;8.59;62.69
22775;BME280;11554;51.106;3.684;2023-03-01T13:55:00;102522.62000000001;;;8.50;59.82
22775;BME280;11554;51.106;3.684;2023-03-01T14:00:00;102522.62000000001;;;8.14;59.07
22775;BME280;11554;51.106;3.684;2023-03-01T14:05:00;102519.68999999999;;;8.09;60.91
22775;BME280;11554;51.106;3.684;2023-03-01T14:10:00;102503.23000000001;;;7.94;60.27
22775;BME280;11554;51.106;3.684;2023-03-01T14:15:01;102495.98000000001;;;7.78;59.94
22775;BME280;11554;51.106;3.684;2023-03-01T14:20:00;102486.87999999999;;;7.75;59.77
22775;BME280;11554;51.106;3.684;2023-03-01T14:25:01;102477.12;;;8.00;61.82
22775;BME280;11554;51.106;3.684;2023-03-01T14:30:01;102470.2;;;8.18;62.08
22775;BME280;11554;51.106;3.684;2023-03-01T14:35:00;102478.64;;;8.31;60.55
22775;BME280;11554;51.106;3.684;2023-03-01T14:40:01;102467.19;;;8.40;60.81
22775;BME280;11554;51.106;3.684;2023-03-01T14:45:00;102463.56000000001;;;8.01;60.52
22775;BME280;11554;51.106;3.684;2023-03-01T14:50:01;102457.3;;;7.95;60.66
22775;BME280;11554;51.106;3.684;2023-03-01T14:55:00;102454.20999999999;;;7.95;61.38
22775;BME280;11554;51.106;3.684;2023-03-01T15:00:01;102443.65000000001;;;7.77;61.0
22775;BME280;11554;51.106;3.684;2023-03-01T15:05:01;102434.7;;;7.54;60.67
22775;BME280;11554;51.106;3.684;2023-03-01T15:10:00;102424.06000000001;;;7.44;62.72
22775;BME280;11554;51.106;3.684;2023-03-01T15:15:00;102429.02999999998;;;7.37;62.42
22775;BME280;11554;51.106;3.684;2023-03-01T15:20:00;102418.68999999999;;;7.33;62.4
22775;BME280;11554;51.106;3.684;2023-03-01T15:25:00;102403.89;;;7.18;61.99
22775;BME280;11554;51.106;3.684;2023-03-01T15:30:00;102400.0;;;7.26;63.07
22775;BME280;11554;51.106;3.684;2023-03-01T15:35:01;102396.64;;;7.19;61.23
22775;BME280;11554;51.106;3.684;2023-03-01T15:40:00;102397.06;;;7.03;61.22
22775;BME280;11554;51.106;3.684;2023-03-01T15:45:08;102391.65000000001;;;7.04;61.05
22775;BME280;11554;51.106;3.684;2023-03-01T15:50:00;102389.94;;;6.95;61.04
22775;BME280;11554;51.106;3.684;2023-03-01T15:55:01;102385.36;;;6.78;61.36
22775;BME280;11554;51.106;3.684;2023-03-01T16:00:00;102386.25;;;6.79;61.36
22775;BME280;11554;51.106;3.684;2023-03-01T16:05:00;102389.58;;;6.64;62.03
22775;BME280;11554;51.106;3.684;2023-03-01T16:10:00;102383.2;;;6.58;62.86
22775;BME280;11554;51.106;3.684;2023-03-01T16:15:00;102378.86;;;6.41;63.41
22775;BME280;11554;51.106;3.684;2023-03-01T16:20:00;102376.9;;;6.38;63.64
22775;BME280;11554;51.106;3.684;2023-03-01T16:25:00;102381.26999999999;;;6.16;63.73
22775;BME280;11554;51.106;3.684;2023-03-01T16:30:00;102384.93999999999;;;6.01;64.24
22775;BME280;11554;51.106;3.684;2023-03-01T16:35:00;102375.06;;;5.87;64.27
22775;BME280;11554;51.106;3.684;2023-03-01T16:40:00;102372.16;;;5.71;64.89
22775;BME280;11554;51.106;3.684;2023-03-01T16:45:00;102369.48;;;5.57;65.39
22775;BME280;11554;51.106;3.684;2023-03-01T16:50:00;102376.70000000001;;;5.37;66.16
22775;BME280;11554;51.106;3.684;2023-03-01T16:55:01;102374.22;;;5.17;66.97
22775;BME280;11554;51.106;3.684;2023-03-01T17:00:00;102378.72;;;4.98;66.8
22775;BME280;11554;51.106;3.684;2023-03-01T17:05:00;102373.38;;;4.86;66.14
22775;BME280;11554;51.106;3.684;2023-03-01T17:10:00;102373.39;;;4.71;66.45
22775;BME280;11554;51.106;3.684;2023-03-01T17:15:00;102383.75;;;4.51;67.31
22775;BME280;11554;51.106;3.684;2023-03-01T17:20:00;102380.54;;;4.33;67.85
22775;BME280;11554;51.106;3.684;2023-03-01T17:25:00;102382.23000000001;;;4.13;68.39
22775;BME280;11554;51.106;3.684;2023-03-01T17:30:00;102392.85;;;4.01;68.78
22775;BME280;11554;51.106;3.684;2023-03-01T17:35:00;102395.6;;;3.82;69.3
22775;BME280;11554;51.106;3.684;2023-03-01T17:40:00;102402.02999999998;;;3.60;69.97
22775;BME280;11554;51.106;3.684;2023-03-01T17:45:00;102399.13;;;3.38;70.49
22775;BME280;11554;51.106;3.684;2023-03-01T17:50:00;102395.28;;;3.22;70.95
22775;BME280;11554;51.106;3.684;2023-03-01T17:55:00;102399.27;;;3.23;71.05
22775;BME280;11554;51.106;3.684;2023-03-01T18:00:00;102409.39000000001;;;3.03;71.61
22775;BME280;11554;51.106;3.684;2023-03-01T18:05:00;102412.21;;;2.93;71.84
22775;BME280;11554;51.106;3.684;2023-03-01T18:10:00;102414.1;;;2.78;72.3
22775;BME280;11554;51.106;3.684;2023-03-01T18:15:00;102416.09000000001;;;2.69;72.71
22775;BME280;11554;51.106;3.684;2023-03-01T18:20:00;102417.15;;;2.67;72.51
22775;BME280;11554;51.106;3.684;2023-03-01T18:25:00;102420.83;;;2.64;72.5
22775;BME280;11554;51.106;3.684;2023-03-01T18:30:00;102429.77;;;2.71;71.79
22775;BME280;11554;51.106;3.684;2023-03-01T18:35:00;102435.21;;;2.79;71.08
22775;BME280;11554;51.106;3.684;2023-03-01T18:40:00;102434.97;;;2.92;70.44
22775;BME280;11554;51.106;3.684;2023-03-01T18:45:00;102433.79;;;2.85;70.44
22775;BME280;11554;51.106;3.684;2023-03-01T18:50:00;102428.33;;;2.82;70.96
22775;BME280;11554;51.106;3.684;2023-03-01T18:55:00;102426.12;;;2.78;71.08
22775;BME280;11554;51.106;3.684;2023-03-01T19:00:00;102425.52;;;2.81;71.2
22775;BME280;11554;51.106;3.684;2023-03-01T19:05:00;102419.38;;;2.65;71.64
22775;BME280;11554;51.106;3.684;2023-03-01T19:10:00;102412.56000000001;;;2.56;72.2
22775;BME280;11554;51.106;3.684;2023-03-01T19:15:00;102410.39000000001;;;2.46;72.54
22775;BME280;11554;51.106;3.684;2023-03-01T19:20:00;102411.22;;;2.42;73.11
22775;BME280;11554;51.106;3.684;2023-03-01T19:25:00;102416.00000000001;;;2.36;73.26
22775;BME280;11554;51.106;3.684;2023-03-01T19:30:00;102416.37000000001;;;2.25;73.65
22775;BME280;11554;51.106;3.684;2023-03-01T19:35:00;102410.95;;;2.16;74.1
22775;BME280;11554;51.106;3.684;2023-03-01T19:40:00;102411.51;;;2.12;73.98
22775;BME280;11554;51.106;3.684;2023-03-01T19:45:00;102409.38;;;2.00;74.51
22775;BME280;11554;51.106;3.684;2023-03-01T19:50:00;102405.58000000002;;;1.90;74.57
22775;BME280;11554;51.106;3.684;2023-03-01T19:55:00;102400.17;;;1.76;75.04
22775;BME280;11554;51.106;3.684;2023-03-01T20:00:00;102407.70999999999;;;1.68;75.52
22775;BME280;11554;51.106;3.684;2023-03-01T20:05:00;102406.98999999999;;;1.54;75.67
22775;BME280;11554;51.106;3.684;2023-03-01T20:10:00;102408.14;;;1.21;76.14
22775;BME280;11554;51.106;3.684;2023-03-01T20:15:00;102404.15000000001;;;1.00;77.22
22775;BME280;11554;51.106;3.684;2023-03-01T20:20:00;102414.36000000002;;;0.70;77.49
22775;BME280;11554;51.106;3.684;2023-03-01T20:25:00;102411.95999999999;;;0.51;78.78
22775;BME280;11554;51.106;3.684;2023-03-01T20:30:00;102413.85;;;0.26;78.55
22775;BME280;11554;51.106;3.684;2023-03-01T20:35:00;102410.69;;;0.05;79.5
22775;BME280;11554;51.106;3.684;2023-03-01T20:40:00;102413.29000000001;;;-0.08;80.74
22775;BME280;11554;51.106;3.684;2023-03-01T20:45:00;102414.39;;;-0.18;81.07
22775;BME280;11554;51.106;3.684;2023-03-01T20:50:00;102416.41;;;-0.28;81.46
22775;BME280;11554;51.106;3.684;2023-03-01T20:55:00;102419.1;;;-0.24;82.31
22775;BME280;11554;51.106;3.684;2023-03-01T21:00:00;102418.44;;;-0.16;82.7
22775;BME280;11554;51.106;3.684;2023-03-01T21:05:00;102423.28;;;-0.07;82.8
22775;BME280;11554;51.106;3.684;2023-03-01T21:10:00;102421.28;;;-0.10;82.58
22775;BME280;11554;51.106;3.684;2023-03-01T21:15:00;102416.55;;;-0.17;82.5
22775;BME280;11554;51.106;3.684;2023-03-01T21:20:00;102408.18;;;-0.42;82.07
22775;BME280;11554;51.106;3.684;2023-03-01T21:25:00;102405.52;;;-0.58;82.76
22775;BME280;11554;51.106;3.684;2023-03-01T21:30:00;102407.43;;;-0.79;82.62
22775;BME280;11554;51.106;3.684;2023-03-01T21:35:00;102400.55;;;-0.64;84.68
22775;BME280;11554;51.106;3.684;2023-03-01T21:40:00;102395.19;;;-0.48;85.09
22775;BME280;11554;51.106;3.684;2023-03-01T21:45:00;102382.58;;;-0.45;84.81
22775;BME280;11554;51.106;3.684;2023-03-01T21:50:00;102382.2;;;-0.45;84.83
22775;BME280;11554;51.106;3.684;2023-03-01T21:55:00;102384.88;;;-0.44;84.9
22775;BME280;11554;51.106;3.684;2023-03-01T22:00:00;102381.75;;;-0.46;84.9
22775;BME280;11554;51.106;3.684;2023-03-01T22:05:00;102378.61;;;-0.44;85.38
22775;BME280;11554;51.106;3.684;2023-03-01T22:10:00;102380.94;;;-0.53;85.21
22775;BME280;11554;51.106;3.684;2023-03-01T22:15:00;102385.79999999999;;;-0.58;85.99
22775;BME280;11554;51.106;3.684;2023-03-01T22:20:00;102395.15;;;-0.59;86.3
22775;BME280;11554;51.106;3.684;2023-03-01T22:25:00;102398.27;;;-0.59;86.34
22775;BME280;11554;51.106;3.684;2023-03-01T22:30:00;102405.73999999999;;;-0.56;86.72
22775;BME280;11554;51.106;3.684;2023-03-01T22:35:00;102411.89;;;-0.64;86.43
22775;BME280;11554;51.106;3.684;2023-03-01T22:40:00;102408.68000000001;;;-0.88;85.38
22775;BME280;11554;51.106;3.684;2023-03-01T22:45:00;102416.15999999999;;;-1.09;86.02
22775;BME280;11554;51.106;3.684;2023-03-01T22:50:00;102415.22;;;-1.12;86.97
22775;BME280;11554;51.106;3.684;2023-03-01T22:55:00;102421.07;;;-1.29;86.45
22775;BME280;11554;51.106;3.684;2023-03-01T23:00:00;102418.31999999999;;;-1.50;86.76
22775;BME280;11554;51.106;3.684;2023-03-01T23:05:00;102419.20999999999;;;-1.60;87.3
22775;BME280;11554;51.106;3.684;2023-03-01T23:10:00;102414.21;;;-1.61;88.53
22775;BME280;11554;51.106;3.684;2023-03-01T23:15:00;102417.15;;;-1.69;88.37
22775;BME280;11554;51.106;3.684;2023-03-01T23:20:00;102419.74;;;-1.79;88.74
22775;BME280;11554;51.106;3.684;2023-03-01T23:25:00;102420.02;;;-1.85;89.5
22775;BME280;11554;51.106;3.684;2023-03-01T23:30:00;102422.08;;;-1.74;90.64
22775;BME280;11554;51.106;3.684;2023-03-01T23:35:00;102423.19;;;-1.69;90.81
22775;BME280;11554;51.106;3.684;2023-03-01T23:40:00;102421.55;;;-2.06;89.03
22775;BME280;11554;51.106;3.684;2023-03-01T23:45:00;102419.82;;;-1.98;90.88
22775;BME280;11554;51.106;3.684;2023-03-01T23:50:00;102415.43999999999;;;-1.93;91.48
22775;BME280;11554;51.106;3.684;2023-03-01T23:55:00;102414.03;;;-1.78;92.42
